createdAt,value
2019-04-16T00:00:55.226Z,0.00
2019-04-16T00:01:55.253Z,0.00
2019-04-16T00:02:55.280Z,0.00
2019-04-16T00:03:55.307Z,0.00
2019-04-16T00:04:56.748Z,0.00
2019-04-16T00:05:58.645Z,0.00
2019-04-16T00:06:55.392Z,0.00
2019-04-16T00:07:55.422Z,0.00
2019-04-16T00:08:57.238Z,0.00
2019-04-16T00:09:55.632Z,0.00
2019-04-16T00:10:55.658Z,0.00
2019-04-16T00:11:55.530Z,0.00
2019-04-16T00:12:55.558Z,0.00
2019-04-16T00:13:55.587Z,0.00
2019-04-16T00:14:55.621Z,0.00
2019-04-16T00:15:55.644Z,0.00
2019-04-16T00:16:55.864Z,0.00
2019-04-16T00:17:55.699Z,0.00
2019-04-16T00:18:57.840Z,0.00
2019-04-16T00:19:55.755Z,0.00
2019-04-16T00:20:55.785Z,0.00
2019-04-16T00:21:55.811Z,0.00
2019-04-16T00:22:55.838Z,0.00
2019-04-16T00:23:55.873Z,0.00
2019-04-16T00:24:55.897Z,0.00
2019-04-16T00:25:56.483Z,0.00
2019-04-16T00:26:59.325Z,0.00
2019-04-16T00:27:59.552Z,0.00
2019-04-16T00:28:56.010Z,0.00
2019-04-16T00:29:56.047Z,0.00
2019-04-16T00:30:56.065Z,0.00
2019-04-16T00:31:56.094Z,0.00
2019-04-16T00:32:56.122Z,0.00
2019-04-16T00:33:56.150Z,0.00
2019-04-16T00:34:56.178Z,0.00
2019-04-16T00:35:56.209Z,0.00
2019-04-16T00:36:56.235Z,0.00
2019-04-16T00:37:56.263Z,0.00
2019-04-16T00:38:56.290Z,0.00
2019-04-16T00:39:56.969Z,0.00
2019-04-16T00:41:00.752Z,0.00
2019-04-16T00:41:56.374Z,0.00
2019-04-16T00:42:56.407Z,0.00
2019-04-16T00:43:56.432Z,0.00
2019-04-16T00:44:56.463Z,0.00
2019-04-16T00:45:56.492Z,0.00
2019-04-16T00:46:56.706Z,0.00
2019-04-16T00:47:56.544Z,0.00
2019-04-16T00:48:56.580Z,0.00
2019-04-16T00:49:58.820Z,0.00
2019-04-16T00:50:56.633Z,0.00
2019-04-16T00:51:56.658Z,0.00
2019-04-16T00:52:56.686Z,0.00
2019-04-16T00:53:56.965Z,0.00
2019-04-16T00:54:56.976Z,0.00
2019-04-16T00:55:56.784Z,0.00
2019-04-16T00:56:56.800Z,0.00
2019-04-16T00:57:56.826Z,0.00
2019-04-16T00:58:56.855Z,0.00
2019-04-16T00:59:57.022Z,0.00
2019-04-16T01:00:56.974Z,0.00
2019-04-16T01:01:56.940Z,0.00
2019-04-16T01:02:56.967Z,0.00
2019-04-16T01:03:57.000Z,0.00
2019-04-16T01:04:57.029Z,0.00
2019-04-16T01:05:57.053Z,0.00
2019-04-16T01:06:57.081Z,0.00
2019-04-16T01:07:57.109Z,0.00
2019-04-16T01:08:57.140Z,0.00
2019-04-16T01:09:57.165Z,0.00
2019-04-16T01:10:57.197Z,0.00
2019-04-16T01:11:57.224Z,0.00
2019-04-16T01:12:57.252Z,0.00
2019-04-16T01:13:57.278Z,0.00
2019-04-16T01:15:00.686Z,0.00
2019-04-16T01:15:57.335Z,0.00
2019-04-16T01:16:57.363Z,0.00
2019-04-16T01:17:57.393Z,0.00
2019-04-16T01:18:57.422Z,0.00
2019-04-16T01:19:57.450Z,0.00
2019-04-16T01:20:57.500Z,0.00
2019-04-16T01:21:57.507Z,0.00
2019-04-16T01:22:57.533Z,0.00
2019-04-16T01:23:57.561Z,0.00
2019-04-16T01:24:57.591Z,0.00
2019-04-16T01:25:57.630Z,0.00
2019-04-16T01:26:58.203Z,0.00
2019-04-16T01:28:00.972Z,0.00
2019-04-16T01:29:00.203Z,0.00
2019-04-16T01:29:57.732Z,0.00
2019-04-16T01:30:57.760Z,0.00
2019-04-16T01:31:57.827Z,0.00
2019-04-16T01:32:57.817Z,0.00
2019-04-16T01:33:57.847Z,0.00
2019-04-16T01:34:57.876Z,0.00
2019-04-16T01:35:57.916Z,0.00
2019-04-16T01:36:57.930Z,0.00
2019-04-16T01:37:57.986Z,0.00
2019-04-16T01:39:14.725Z,0.00
2019-04-16T01:39:58.017Z,0.00
2019-04-16T01:40:58.043Z,0.00
2019-04-16T01:41:58.074Z,0.00
2019-04-16T01:42:58.101Z,0.00
2019-04-16T01:43:58.435Z,0.00
2019-04-16T01:44:59.787Z,0.00
2019-04-16T01:46:00.855Z,0.00
2019-04-16T01:46:58.220Z,0.00
2019-04-16T01:47:58.257Z,0.00
2019-04-16T01:48:58.317Z,0.00
2019-04-16T01:49:58.302Z,0.00
2019-04-16T01:50:58.326Z,0.00
2019-04-16T01:51:58.357Z,0.00
2019-04-16T01:52:58.384Z,0.00
2019-04-16T01:53:58.527Z,0.00
2019-04-16T01:54:58.605Z,0.00
2019-04-16T01:55:58.627Z,0.00
2019-04-16T01:56:59.904Z,0.00
2019-04-16T01:57:59.627Z,0.00
2019-04-16T01:58:58.661Z,0.00
2019-04-16T01:59:58.763Z,0.00
2019-04-16T02:00:58.737Z,0.00
2019-04-16T02:01:58.638Z,0.00
2019-04-16T02:02:58.666Z,0.00
2019-04-16T02:03:59.006Z,0.00
2019-04-16T02:04:58.725Z,0.00
2019-04-16T02:05:58.751Z,0.00
2019-04-16T02:06:58.780Z,0.00
2019-04-16T02:07:59.912Z,0.00
2019-04-16T02:09:01.846Z,0.00
2019-04-16T02:09:58.864Z,0.00
2019-04-16T02:10:58.900Z,0.00
2019-04-16T02:11:58.928Z,0.00
2019-04-16T02:12:58.952Z,0.00
2019-04-16T02:13:58.981Z,0.00
2019-04-16T02:14:59.012Z,0.00
2019-04-16T02:15:59.034Z,0.00
2019-04-16T02:16:59.067Z,0.00
2019-04-16T02:17:59.952Z,0.00
2019-04-16T02:19:01.254Z,0.00
2019-04-16T02:20:02.106Z,0.00
2019-04-16T02:20:59.181Z,0.00
2019-04-16T02:21:59.205Z,0.00
2019-04-16T02:22:59.235Z,0.00
2019-04-16T02:23:59.265Z,0.00
2019-04-16T02:24:59.296Z,0.00
2019-04-16T02:25:59.318Z,0.00
2019-04-16T02:26:59.355Z,0.00
2019-04-16T02:27:59.378Z,0.00
2019-04-16T02:28:59.622Z,0.00
2019-04-16T02:30:02.938Z,0.00
2019-04-16T02:30:59.461Z,0.00
2019-04-16T02:31:59.489Z,0.00
2019-04-16T02:32:59.520Z,0.00
2019-04-16T02:33:59.545Z,0.00
2019-04-16T02:34:59.575Z,0.00
2019-04-16T02:35:59.606Z,0.00
2019-04-16T02:37:02.491Z,0.00
2019-04-16T02:37:59.659Z,0.00
2019-04-16T02:38:59.693Z,0.00
2019-04-16T02:39:59.717Z,0.00
2019-04-16T02:40:59.743Z,0.00
2019-04-16T02:41:59.773Z,0.00
2019-04-16T02:43:04.176Z,0.00
2019-04-16T02:43:59.828Z,0.00
2019-04-16T02:44:59.858Z,0.00
2019-04-16T02:45:59.891Z,0.00
2019-04-16T02:47:05.476Z,0.00
2019-04-16T02:47:59.942Z,0.00
2019-04-16T02:48:59.971Z,0.00
2019-04-16T02:49:59.999Z,0.00
2019-04-16T02:51:05.277Z,0.00
2019-04-16T02:52:00.058Z,0.00
2019-04-16T02:53:00.091Z,0.00
2019-04-16T02:54:00.199Z,0.00
2019-04-16T02:55:07.660Z,0.00
2019-04-16T02:56:00.167Z,0.00
2019-04-16T02:57:00.198Z,0.00
2019-04-16T02:58:01.872Z,0.00
2019-04-16T02:59:00.254Z,0.00
2019-04-16T03:00:00.282Z,0.00
2019-04-16T03:01:00.308Z,0.00
2019-04-16T03:02:00.338Z,0.00
2019-04-16T03:03:00.362Z,0.00
2019-04-16T03:04:00.392Z,0.00
2019-04-16T03:05:00.433Z,0.00
2019-04-16T03:06:00.942Z,0.00
2019-04-16T03:07:03.233Z,0.00
2019-04-16T03:08:01.549Z,0.00
2019-04-16T03:09:00.534Z,5.63
2019-04-16T03:10:01.963Z,5.63
2019-04-16T03:11:00.590Z,5.63
2019-04-16T03:12:00.620Z,5.63
2019-04-16T03:13:00.650Z,5.63
2019-04-16T03:14:00.676Z,5.63
2019-04-16T03:15:01.867Z,5.63
2019-04-16T03:16:02.869Z,5.63
2019-04-16T03:17:00.788Z,5.63
2019-04-16T03:18:00.790Z,11.25
2019-04-16T03:19:00.821Z,11.25
2019-04-16T03:20:00.848Z,11.25
2019-04-16T03:21:00.877Z,11.25
2019-04-16T03:22:02.181Z,11.25
2019-04-16T03:23:05.311Z,11.25
2019-04-16T03:24:00.961Z,11.25
2019-04-16T03:25:00.991Z,11.25
2019-04-16T03:26:01.020Z,16.88
2019-04-16T03:27:04.321Z,16.88
2019-04-16T03:28:01.078Z,16.88
2019-04-16T03:29:01.107Z,16.88
2019-04-16T03:30:03.550Z,16.88
2019-04-16T03:31:01.161Z,16.88
2019-04-16T03:32:01.205Z,22.50
2019-04-16T03:33:10.427Z,22.50
2019-04-16T03:34:01.256Z,22.50
2019-04-16T03:35:01.275Z,22.50
2019-04-16T03:36:01.304Z,28.13
2019-04-16T03:37:01.899Z,28.13
2019-04-16T03:38:01.683Z,28.13
2019-04-16T03:39:01.391Z,28.13
2019-04-16T03:40:14.466Z,28.13
2019-04-16T03:41:01.450Z,28.13
2019-04-16T03:42:01.479Z,33.75
2019-04-16T03:43:04.039Z,33.75
2019-04-16T03:44:04.116Z,33.75
2019-04-16T03:45:01.563Z,33.75
2019-04-16T03:46:01.591Z,33.75
2019-04-16T03:47:01.620Z,33.75
2019-04-16T03:48:01.657Z,33.75
2019-04-16T03:49:01.678Z,33.75
2019-04-16T03:50:01.707Z,33.75
2019-04-16T03:51:03.656Z,33.75
2019-04-16T03:52:04.829Z,33.75
2019-04-16T03:53:01.793Z,39.38
2019-04-16T03:54:04.751Z,39.38
2019-04-16T03:55:01.855Z,45.00
2019-04-16T03:56:01.877Z,45.00
2019-04-16T03:57:02.806Z,50.63
2019-04-16T03:58:05.250Z,56.25
2019-04-16T03:59:01.963Z,61.88
2019-04-16T04:00:02.116Z,67.50
2019-04-16T04:01:02.023Z,73.13
2019-04-16T04:02:02.053Z,73.13
2019-04-16T04:03:02.078Z,78.75
2019-04-16T04:04:02.112Z,90.00
2019-04-16T04:05:06.380Z,95.63
2019-04-16T04:06:03.550Z,101.25
2019-04-16T04:07:02.196Z,106.88
2019-04-16T04:08:02.228Z,106.88
2019-04-16T04:09:02.255Z,112.50
2019-04-16T04:10:02.279Z,118.13
2019-04-16T04:11:02.309Z,118.13
2019-04-16T04:12:02.337Z,123.75
2019-04-16T04:13:04.891Z,123.75
2019-04-16T04:14:02.397Z,129.38
2019-04-16T04:15:02.426Z,135.00
2019-04-16T04:16:02.456Z,140.63
2019-04-16T04:17:05.679Z,146.25
2019-04-16T04:18:02.524Z,151.88
2019-04-16T04:19:02.546Z,157.50
2019-04-16T04:20:02.571Z,157.50
2019-04-16T04:21:02.604Z,157.50
2019-04-16T04:22:02.630Z,157.50
2019-04-16T04:23:02.667Z,157.50
2019-04-16T04:24:02.689Z,151.88
2019-04-16T04:25:04.523Z,151.88
2019-04-16T04:26:05.508Z,151.88
2019-04-16T04:27:02.775Z,146.25
2019-04-16T04:28:02.808Z,151.88
2019-04-16T04:29:06.023Z,146.25
2019-04-16T04:30:02.865Z,146.25
2019-04-16T04:31:02.897Z,146.25
2019-04-16T04:32:03.618Z,140.63
2019-04-16T04:33:07.408Z,140.63
2019-04-16T04:34:02.983Z,140.63
2019-04-16T04:35:03.014Z,140.63
2019-04-16T04:36:03.043Z,146.25
2019-04-16T04:37:03.075Z,140.63
2019-04-16T04:38:04.229Z,140.63
2019-04-16T04:39:03.134Z,146.25
2019-04-16T04:40:03.173Z,151.88
2019-04-16T04:41:03.194Z,157.50
2019-04-16T04:42:03.224Z,168.75
2019-04-16T04:43:03.251Z,174.38
2019-04-16T04:44:04.551Z,180.00
2019-04-16T04:45:08.428Z,208.13
2019-04-16T04:46:03.344Z,196.88
2019-04-16T04:47:03.372Z,202.50
2019-04-16T04:48:03.404Z,208.13
2019-04-16T04:49:03.433Z,213.75
2019-04-16T04:50:04.359Z,225.00
2019-04-16T04:51:06.715Z,225.00
2019-04-16T04:52:03.519Z,225.00
2019-04-16T04:53:03.550Z,230.63
2019-04-16T04:54:03.579Z,230.63
2019-04-16T04:55:03.610Z,236.25
2019-04-16T04:56:03.638Z,236.25
2019-04-16T04:57:03.671Z,236.25
2019-04-16T04:58:03.704Z,236.25
2019-04-16T04:59:05.188Z,236.25
2019-04-16T05:00:05.655Z,241.88
2019-04-16T05:01:03.791Z,253.13
2019-04-16T05:02:03.822Z,258.75
2019-04-16T05:03:03.852Z,258.75
2019-04-16T05:04:03.880Z,258.75
2019-04-16T05:05:03.915Z,264.38
2019-04-16T05:06:03.943Z,264.38
2019-04-16T05:07:04.920Z,270.00
2019-04-16T05:08:04.001Z,270.00
2019-04-16T05:09:04.036Z,270.00
2019-04-16T05:10:04.568Z,270.00
2019-04-16T05:11:04.093Z,270.00
2019-04-16T05:12:04.124Z,264.38
2019-04-16T05:13:04.155Z,258.75
2019-04-16T05:14:04.188Z,258.75
2019-04-16T05:15:04.225Z,258.75
2019-04-16T05:16:06.965Z,258.75
2019-04-16T05:17:06.653Z,264.38
2019-04-16T05:18:05.948Z,275.63
2019-04-16T05:19:04.339Z,286.88
2019-04-16T05:20:04.371Z,298.13
2019-04-16T05:21:04.404Z,309.38
2019-04-16T05:22:04.436Z,326.25
2019-04-16T05:23:04.467Z,360.00
2019-04-16T05:24:04.498Z,472.50
2019-04-16T05:25:04.529Z,399.38
2019-04-16T05:26:05.328Z,416.25
2019-04-16T05:27:05.531Z,410.63
2019-04-16T05:28:04.619Z,438.75
2019-04-16T05:29:04.652Z,450.00
2019-04-16T05:30:04.683Z,506.25
2019-04-16T05:31:04.713Z,556.88
2019-04-16T05:32:04.750Z,720.00
2019-04-16T05:33:05.615Z,883.13
2019-04-16T05:34:06.012Z,973.13
2019-04-16T05:35:09.247Z,883.13
2019-04-16T05:36:04.878Z,950.63
2019-04-16T05:37:04.909Z,1006.88
2019-04-16T05:38:04.941Z,1006.88
2019-04-16T05:39:04.977Z,1006.88
2019-04-16T05:40:05.007Z,810.00
2019-04-16T05:41:13.024Z,1001.25
2019-04-16T05:42:05.073Z,1018.13
2019-04-16T05:43:05.113Z,1029.38
2019-04-16T05:44:05.145Z,1063.13
2019-04-16T05:45:05.522Z,1040.63
2019-04-16T05:46:05.467Z,1035.00
2019-04-16T05:47:05.248Z,1001.25
2019-04-16T05:48:05.299Z,961.88
2019-04-16T05:49:05.325Z,1018.13
2019-04-16T05:50:05.355Z,860.63
2019-04-16T05:51:05.392Z,787.50
2019-04-16T05:52:05.434Z,855.00
2019-04-16T05:53:08.266Z,855.00
2019-04-16T05:54:05.518Z,939.38
2019-04-16T05:55:05.540Z,1029.38
2019-04-16T05:56:05.572Z,1023.75
2019-04-16T05:57:05.610Z,1018.13
2019-04-16T05:58:05.648Z,1018.13
2019-04-16T05:59:05.683Z,1012.50
2019-04-16T06:00:09.418Z,1046.25
2019-04-16T06:01:05.758Z,1074.38
2019-04-16T06:02:05.795Z,1080.00
2019-04-16T06:03:05.828Z,1096.88
2019-04-16T06:04:05.866Z,1091.25
2019-04-16T06:05:05.903Z,1080.00
2019-04-16T06:06:05.941Z,1091.25
2019-04-16T06:07:07.666Z,1119.38
2019-04-16T06:08:06.302Z,1096.88
2019-04-16T06:09:06.054Z,1051.88
2019-04-16T06:10:06.967Z,1006.88
2019-04-16T06:11:06.130Z,1035.00
2019-04-16T06:12:08.891Z,1051.88
2019-04-16T06:13:06.204Z,1023.75
2019-04-16T06:14:06.238Z,1012.50
2019-04-16T06:15:06.290Z,1068.75
2019-04-16T06:16:06.320Z,1091.25
2019-04-16T06:17:06.354Z,1074.38
2019-04-16T06:18:06.389Z,1108.13
2019-04-16T06:19:08.520Z,1130.63
2019-04-16T06:20:06.467Z,1113.75
2019-04-16T06:21:06.505Z,1102.50
2019-04-16T06:22:06.554Z,1068.75
2019-04-16T06:23:06.580Z,1136.25
2019-04-16T06:24:06.618Z,1164.38
2019-04-16T06:25:09.738Z,1158.75
2019-04-16T06:26:06.697Z,1192.50
2019-04-16T06:27:06.736Z,1181.25
2019-04-16T06:28:06.772Z,1153.13
2019-04-16T06:29:06.818Z,1147.50
2019-04-16T06:30:06.850Z,1192.50
2019-04-16T06:31:10.065Z,1175.63
2019-04-16T06:32:08.428Z,1181.25
2019-04-16T06:33:06.965Z,1231.88
2019-04-16T06:34:07.008Z,1243.13
2019-04-16T06:35:07.042Z,1265.63
2019-04-16T06:36:07.084Z,1231.88
2019-04-16T06:37:07.119Z,928.13
2019-04-16T06:38:07.158Z,973.13
2019-04-16T06:39:07.198Z,1040.63
2019-04-16T06:40:07.236Z,1237.50
2019-04-16T06:41:07.278Z,1333.13
2019-04-16T06:42:07.313Z,1299.38
2019-04-16T06:43:07.363Z,1237.50
2019-04-16T06:44:07.390Z,1310.63
2019-04-16T06:45:07.427Z,1350.00
2019-04-16T06:46:08.546Z,1310.63
2019-04-16T06:47:10.528Z,1372.50
2019-04-16T06:48:12.698Z,1282.50
2019-04-16T06:49:07.584Z,1321.88
2019-04-16T06:50:07.622Z,1186.88
2019-04-16T06:51:11.675Z,1338.75
2019-04-16T06:52:07.701Z,1327.50
2019-04-16T06:53:07.738Z,1310.63
2019-04-16T06:54:07.776Z,1299.38
2019-04-16T06:55:07.814Z,1299.38
2019-04-16T06:56:08.760Z,1338.75
2019-04-16T06:57:09.720Z,1383.75
2019-04-16T06:58:07.931Z,1372.50
2019-04-16T06:59:07.969Z,1333.13
2019-04-16T07:00:08.012Z,1310.63
2019-04-16T07:01:08.048Z,1361.25
2019-04-16T07:02:10.547Z,1389.38
2019-04-16T07:03:08.125Z,1411.88
2019-04-16T07:04:08.171Z,1411.88
2019-04-16T07:05:08.204Z,1440.00
2019-04-16T07:06:08.246Z,1434.38
2019-04-16T07:07:09.441Z,1428.75
2019-04-16T07:08:08.323Z,1423.13
2019-04-16T07:09:08.362Z,1456.88
2019-04-16T07:10:08.403Z,1417.50
2019-04-16T07:11:08.439Z,1434.38
2019-04-16T07:12:08.480Z,1468.13
2019-04-16T07:13:11.186Z,1479.38
2019-04-16T07:14:08.560Z,1501.88
2019-04-16T07:15:08.601Z,1518.75
2019-04-16T07:16:08.638Z,1473.75
2019-04-16T07:17:08.680Z,1501.88
2019-04-16T07:18:08.718Z,1490.63
2019-04-16T07:19:11.221Z,1428.75
2019-04-16T07:20:13.090Z,1445.63
2019-04-16T07:21:08.839Z,1473.75
2019-04-16T07:22:08.880Z,1496.25
2019-04-16T07:23:08.920Z,1501.88
2019-04-16T07:24:09.015Z,1563.75
2019-04-16T07:25:09.134Z,1552.50
2019-04-16T07:26:13.562Z,1552.50
2019-04-16T07:27:09.119Z,1530.00
2019-04-16T07:28:09.124Z,1524.38
2019-04-16T07:29:09.276Z,1501.88
2019-04-16T07:30:09.459Z,1513.13
2019-04-16T07:31:13.267Z,1563.75
2019-04-16T07:32:09.288Z,1507.50
2019-04-16T07:33:09.328Z,1569.38
2019-04-16T07:34:09.415Z,1518.75
2019-04-16T07:35:09.410Z,1513.13
2019-04-16T07:36:09.456Z,1552.50
2019-04-16T07:37:09.495Z,1541.25
2019-04-16T07:38:11.566Z,1569.38
2019-04-16T07:39:09.598Z,1530.00
2019-04-16T07:40:10.469Z,1535.63
2019-04-16T07:41:12.104Z,1513.13
2019-04-16T07:43:09.745Z,1501.88
2019-04-16T07:43:47.060Z,1490.63
2019-04-16T07:44:11.097Z,1490.63
2019-04-16T07:45:12.491Z,1558.13
2019-04-16T07:46:09.868Z,1479.38
2019-04-16T07:47:09.912Z,1440.00
2019-04-16T07:48:09.955Z,1378.13
2019-04-16T07:49:09.999Z,1428.75
2019-04-16T07:50:10.038Z,1406.25
2019-04-16T07:51:10.118Z,1417.50
2019-04-16T07:52:12.200Z,1440.00
2019-04-16T07:53:13.509Z,1411.88
2019-04-16T07:54:10.210Z,1569.38
2019-04-16T07:55:10.494Z,1575.00
2019-04-16T07:56:10.296Z,1569.38
2019-04-16T07:57:10.343Z,1580.63
2019-04-16T07:58:10.377Z,1614.38
2019-04-16T07:59:10.420Z,1704.38
2019-04-16T08:00:10.464Z,1631.25
2019-04-16T08:01:12.745Z,1614.38
2019-04-16T08:02:10.545Z,1608.75
2019-04-16T08:03:10.587Z,1670.63
2019-04-16T08:04:10.631Z,1755.00
2019-04-16T08:05:10.675Z,1805.63
2019-04-16T08:06:14.298Z,1788.75
2019-04-16T08:07:10.757Z,1698.75
2019-04-16T08:08:10.802Z,1732.50
2019-04-16T08:09:10.845Z,1704.38
2019-04-16T08:10:10.883Z,1648.13
2019-04-16T08:11:11.114Z,1541.25
2019-04-16T08:12:28.652Z,1614.38
2019-04-16T08:13:13.932Z,1693.13
2019-04-16T08:14:14.551Z,1552.50
2019-04-16T08:15:14.614Z,1586.25
2019-04-16T08:16:11.360Z,1676.25
2019-04-16T08:17:11.189Z,1698.75
2019-04-16T08:18:11.224Z,1704.38
2019-04-16T08:19:12.238Z,1541.25
2019-04-16T08:20:11.313Z,1473.75
2019-04-16T08:21:12.486Z,1507.50
2019-04-16T08:22:15.475Z,1569.38
2019-04-16T08:23:11.439Z,1535.63
2019-04-16T08:24:11.480Z,1473.75
2019-04-16T08:25:11.524Z,1468.13
2019-04-16T08:26:13.678Z,1434.38
2019-04-16T08:27:18.065Z,1361.25
2019-04-16T08:28:11.656Z,1428.75
2019-04-16T08:29:11.696Z,1406.25
2019-04-16T08:30:12.034Z,1490.63
2019-04-16T08:31:12.752Z,1462.50
2019-04-16T08:32:12.904Z,1608.75
2019-04-16T08:33:11.896Z,1614.38
2019-04-16T08:34:11.912Z,1580.63
2019-04-16T08:35:11.955Z,1496.25
2019-04-16T08:36:11.998Z,1625.63
2019-04-16T08:37:12.046Z,1681.88
2019-04-16T08:38:12.087Z,1625.63
2019-04-16T08:39:12.136Z,1659.38
2019-04-16T08:40:13.143Z,1636.88
2019-04-16T08:41:13.145Z,1698.75
2019-04-16T08:42:12.263Z,1710.00
2019-04-16T08:43:12.303Z,1856.25
2019-04-16T08:44:12.351Z,1923.75
2019-04-16T08:45:12.395Z,1794.38
2019-04-16T08:46:12.440Z,1749.38
2019-04-16T08:47:12.982Z,1918.13
2019-04-16T08:48:17.036Z,1968.75
2019-04-16T08:49:15.049Z,2030.63
2019-04-16T08:50:12.691Z,2047.50
2019-04-16T08:51:12.659Z,1991.25
2019-04-16T08:52:12.706Z,2098.13
2019-04-16T08:53:14.254Z,2098.13
2019-04-16T08:54:17.676Z,2081.25
2019-04-16T08:55:12.879Z,2036.25
2019-04-16T08:56:12.884Z,1991.25
2019-04-16T08:57:12.931Z,1828.13
2019-04-16T08:58:13.007Z,2053.13
2019-04-16T08:59:13.020Z,2002.50
2019-04-16T09:00:15.183Z,1766.25
2019-04-16T09:01:15.463Z,1479.38
2019-04-16T09:02:13.156Z,1636.88
2019-04-16T09:03:15.376Z,1788.75
2019-04-16T09:04:13.244Z,1440.00
2019-04-16T09:05:13.292Z,950.63
2019-04-16T09:06:14.167Z,928.13
2019-04-16T09:07:16.362Z,1001.25
2019-04-16T09:08:13.825Z,1209.38
2019-04-16T09:09:18.262Z,1226.25
2019-04-16T09:10:18.130Z,1063.13
2019-04-16T09:11:23.246Z,973.13
2019-04-16T09:12:13.607Z,866.25
2019-04-16T09:13:15.269Z,798.75
2019-04-16T09:14:13.771Z,798.75
2019-04-16T09:15:13.766Z,793.13
2019-04-16T09:16:13.791Z,787.50
2019-04-16T09:17:13.835Z,804.38
2019-04-16T09:18:13.883Z,787.50
2019-04-16T09:19:13.927Z,770.63
2019-04-16T09:20:13.973Z,765.00
2019-04-16T09:21:14.018Z,759.38
2019-04-16T09:22:16.843Z,742.50
2019-04-16T09:23:14.110Z,720.00
2019-04-16T09:24:14.156Z,708.75
2019-04-16T09:25:14.242Z,714.38
2019-04-16T09:26:15.640Z,720.00
2019-04-16T09:27:14.292Z,703.13
2019-04-16T09:28:25.209Z,691.88
2019-04-16T09:29:14.384Z,697.50
2019-04-16T09:30:17.828Z,708.75
2019-04-16T09:31:14.478Z,697.50
2019-04-16T09:32:14.528Z,691.88
2019-04-16T09:33:14.573Z,669.38
2019-04-16T09:34:14.611Z,686.25
2019-04-16T09:35:19.758Z,680.63
2019-04-16T09:36:14.705Z,675.00
2019-04-16T09:37:14.750Z,680.63
2019-04-16T09:38:14.795Z,675.00
2019-04-16T09:39:14.844Z,669.38
2019-04-16T09:40:17.675Z,658.13
2019-04-16T09:41:14.933Z,658.13
2019-04-16T09:42:14.979Z,658.13
2019-04-16T09:43:17.730Z,652.50
2019-04-16T09:44:15.078Z,630.00
2019-04-16T09:45:15.132Z,652.50
2019-04-16T09:46:21.185Z,641.25
2019-04-16T09:47:15.324Z,624.38
2019-04-16T09:48:15.258Z,624.38
2019-04-16T09:49:15.305Z,630.00
2019-04-16T09:50:15.346Z,641.25
2019-04-16T09:51:19.233Z,630.00
2019-04-16T09:52:15.444Z,630.00
2019-04-16T09:53:15.487Z,624.38
2019-04-16T09:54:15.530Z,624.38
2019-04-16T09:55:19.050Z,641.25
2019-04-16T09:56:15.623Z,641.25
2019-04-16T09:57:15.837Z,630.00
2019-04-16T09:58:15.717Z,624.38
2019-04-16T09:59:16.721Z,641.25
2019-04-16T10:00:17.089Z,641.25
2019-04-16T10:01:15.858Z,630.00
2019-04-16T10:02:15.900Z,641.25
2019-04-16T10:03:15.953Z,630.00
2019-04-16T10:04:16.009Z,635.63
2019-04-16T10:05:16.045Z,630.00
2019-04-16T10:06:16.085Z,646.88
2019-04-16T10:07:16.134Z,635.63
2019-04-16T10:08:16.176Z,635.63
2019-04-16T10:09:19.750Z,641.25
2019-04-16T10:10:16.284Z,635.63
2019-04-16T10:11:18.500Z,652.50
2019-04-16T10:12:16.449Z,641.25
2019-04-16T10:13:29.648Z,635.63
2019-04-16T10:14:16.453Z,658.13
2019-04-16T10:15:16.580Z,669.38
2019-04-16T10:16:16.770Z,646.88
2019-04-16T10:17:16.589Z,646.88
2019-04-16T10:18:16.691Z,658.13
2019-04-16T10:19:16.683Z,663.75
2019-04-16T10:20:16.732Z,663.75
2019-04-16T10:21:19.680Z,669.38
2019-04-16T10:22:16.840Z,686.25
2019-04-16T10:23:16.867Z,686.25
2019-04-16T10:24:16.931Z,697.50
2019-04-16T10:25:16.957Z,691.88
2019-04-16T10:26:17.174Z,680.63
2019-04-16T10:27:17.051Z,703.13
2019-04-16T10:28:17.112Z,703.13
2019-04-16T10:29:17.195Z,708.75
2019-04-16T10:30:17.418Z,725.63
2019-04-16T10:31:17.239Z,714.38
2019-04-16T10:32:18.249Z,736.88
2019-04-16T10:33:17.322Z,714.38
2019-04-16T10:34:17.367Z,708.75
2019-04-16T10:35:17.416Z,714.38
2019-04-16T10:36:17.467Z,714.38
2019-04-16T10:37:17.689Z,736.88
2019-04-16T10:38:17.569Z,731.25
2019-04-16T10:39:17.605Z,720.00
2019-04-16T10:40:17.836Z,742.50
2019-04-16T10:41:17.697Z,776.25
2019-04-16T10:42:17.764Z,776.25
2019-04-16T10:43:17.813Z,793.13
2019-04-16T10:44:17.869Z,793.13
2019-04-16T10:45:17.876Z,787.50
2019-04-16T10:46:17.950Z,804.38
2019-04-16T10:47:19.903Z,838.13
2019-04-16T10:48:18.032Z,888.75
2019-04-16T10:49:18.065Z,866.25
2019-04-16T10:50:18.106Z,832.50
2019-04-16T10:51:18.157Z,888.75
2019-04-16T10:52:18.204Z,945.00
2019-04-16T10:53:18.244Z,984.38
2019-04-16T10:54:18.287Z,1018.13
2019-04-16T10:55:18.751Z,1035.00
2019-04-16T10:56:21.180Z,1018.13
2019-04-16T10:57:18.427Z,1057.50
2019-04-16T10:58:18.475Z,1136.25
2019-04-16T10:59:18.519Z,1231.88
2019-04-16T11:00:18.566Z,1316.25
2019-04-16T11:01:18.640Z,1260.00
2019-04-16T11:02:18.688Z,1293.75
2019-04-16T11:03:18.731Z,1395.00
2019-04-16T11:04:18.757Z,1535.63
2019-04-16T11:05:20.073Z,1636.88
2019-04-16T11:06:18.850Z,1608.75
2019-04-16T11:07:18.917Z,1659.38
2019-04-16T11:08:18.955Z,1704.38
2019-04-16T11:09:19.006Z,1710.00
2019-04-16T11:10:19.034Z,1816.88
2019-04-16T11:11:19.080Z,1873.13
2019-04-16T11:12:19.889Z,1794.38
2019-04-16T11:13:19.164Z,1732.50
2019-04-16T11:14:19.206Z,1771.88
2019-04-16T11:15:19.252Z,1788.75
2019-04-16T11:16:19.386Z,1856.25
2019-04-16T11:17:19.349Z,1861.88
2019-04-16T11:18:19.391Z,1918.13
2019-04-16T11:19:19.435Z,1906.88
2019-04-16T11:20:19.484Z,1828.13
2019-04-16T11:21:19.540Z,1884.38
2019-04-16T11:22:19.587Z,1884.38
2019-04-16T11:23:19.652Z,1878.75
2019-04-16T11:24:20.577Z,1856.25
2019-04-16T11:25:19.714Z,1878.75
2019-04-16T11:26:19.754Z,1923.75
2019-04-16T11:27:19.803Z,1963.13
2019-04-16T11:28:19.870Z,1901.25
2019-04-16T11:29:19.896Z,1878.75
2019-04-16T11:30:19.949Z,1901.25
2019-04-16T11:31:20.011Z,1940.63
2019-04-16T11:32:20.034Z,1951.88
2019-04-16T11:33:20.072Z,1935.00
2019-04-16T11:34:20.124Z,1805.63
2019-04-16T11:35:22.985Z,1721.25
2019-04-16T11:36:21.099Z,1805.63
2019-04-16T11:37:20.251Z,1918.13
2019-04-16T11:38:20.322Z,1839.38
2019-04-16T11:39:20.341Z,1811.25
2019-04-16T11:40:20.389Z,1783.13
2019-04-16T11:41:20.431Z,1726.88
2019-04-16T11:42:20.478Z,1873.13
2019-04-16T11:43:20.563Z,1845.00
2019-04-16T11:44:20.566Z,1794.38
2019-04-16T11:45:20.621Z,1783.13
2019-04-16T11:46:20.664Z,1777.50
2019-04-16T11:47:20.705Z,1794.38
2019-04-16T11:48:20.772Z,1839.38
2019-04-16T11:49:20.800Z,1816.88
2019-04-16T11:50:20.942Z,1648.13
2019-04-16T11:51:20.908Z,1423.13
2019-04-16T11:52:20.936Z,1299.38
2019-04-16T11:53:21.005Z,1158.75
2019-04-16T11:54:21.046Z,1080.00
2019-04-16T11:55:21.094Z,1074.38
2019-04-16T11:56:22.680Z,1074.38
2019-04-16T11:57:21.195Z,1091.25
2019-04-16T11:58:21.245Z,1130.63
2019-04-16T11:59:21.267Z,1158.75
2019-04-16T12:00:21.337Z,1186.88
2019-04-16T12:01:23.121Z,1220.63
2019-04-16T12:02:21.393Z,1243.13
2019-04-16T12:03:21.432Z,1282.50
2019-04-16T12:04:21.523Z,1366.88
2019-04-16T12:05:21.530Z,1383.75
2019-04-16T12:06:28.311Z,1417.50
2019-04-16T12:07:21.659Z,1530.00
2019-04-16T12:08:21.678Z,1693.13
2019-04-16T12:09:21.718Z,1946.25
2019-04-16T12:10:21.779Z,2216.25
2019-04-16T12:11:21.846Z,2126.25
2019-04-16T12:12:21.984Z,1895.63
2019-04-16T12:13:21.967Z,1805.63
2019-04-16T12:14:30.649Z,1777.50
2019-04-16T12:15:22.016Z,1743.75
2019-04-16T12:16:24.375Z,1631.25
2019-04-16T12:17:22.106Z,1546.88
2019-04-16T12:18:22.134Z,1445.63
2019-04-16T12:19:22.192Z,1361.25
2019-04-16T12:20:22.225Z,1316.25
2019-04-16T12:21:22.269Z,1231.88
2019-04-16T12:22:22.338Z,1237.50
2019-04-16T12:23:22.400Z,1192.50
2019-04-16T12:24:22.408Z,1108.13
2019-04-16T12:25:22.543Z,1040.63
2019-04-16T12:26:22.517Z,990.00
2019-04-16T12:27:22.543Z,956.25
2019-04-16T12:28:22.613Z,945.00
2019-04-16T12:29:23.264Z,928.13
2019-04-16T12:30:22.688Z,928.13
2019-04-16T12:31:22.724Z,933.75
2019-04-16T12:32:23.027Z,967.50
2019-04-16T12:33:22.892Z,1018.13
2019-04-16T12:34:22.890Z,1085.63